createdAt,value
2023-05-09T00:00:18.779Z,95.70
2023-05-09T00:02:47.891Z,95.91
2023-05-09T00:05:16.761Z,96.41
2023-05-09T00:07:45.214Z,96.69
2023-05-09T00:10:15.972Z,96.96
2023-05-09T00:12:44.968Z,97.06
2023-05-09T00:15:14.170Z,97.50
2023-05-09T00:17:58.605Z,97.81
2023-05-09T00:20:27.321Z,98.18
2023-05-09T00:22:56.491Z,98.46
2023-05-09T00:25:24.881Z,98.58
2023-05-09T00:27:53.203Z,98.86
2023-05-09T00:30:21.544Z,99.20
2023-05-09T00:32:50.039Z,99.47
2023-05-09T00:35:19.637Z,99.76
2023-05-09T00:37:49.795Z,99.77
2023-05-09T00:40:20.783Z,99.95
2023-05-09T00:42:49.273Z,99.79
2023-05-09T00:45:20.209Z,100.00
2023-05-09T00:47:49.801Z,100.00
2023-05-09T00:50:19.778Z,100.00
2023-05-09T00:52:49.583Z,100.00
2023-05-09T00:55:18.370Z,100.00
2023-05-09T00:57:47.093Z,100.00
2023-05-09T01:00:16.662Z,100.00
2023-05-09T01:02:45.730Z,100.00
2023-05-09T01:05:15.128Z,100.00
2023-05-09T01:07:47.089Z,100.00
2023-05-09T01:10:23.404Z,100.00
2023-05-09T01:12:56.181Z,100.00
2023-05-09T01:15:28.356Z,100.00
2023-05-09T01:18:02.310Z,100.00
2023-05-09T01:20:34.642Z,100.00
2023-05-09T01:23:18.087Z,100.00
2023-05-09T01:26:02.947Z,100.00
2023-05-09T01:28:52.603Z,99.86
2023-05-09T01:31:23.007Z,99.85
2023-05-09T01:33:53.485Z,100.00
2023-05-09T01:36:22.555Z,100.00
2023-05-09T01:38:52.958Z,100.00
2023-05-09T01:41:23.667Z,100.00
2023-05-09T01:43:53.008Z,100.00
2023-05-09T01:46:23.423Z,100.00
2023-05-09T01:48:52.275Z,100.00
2023-05-09T01:51:21.386Z,100.00
2023-05-09T01:53:50.858Z,100.00
2023-05-09T01:56:19.858Z,100.00
2023-05-09T01:58:50.040Z,100.00
2023-05-09T02:01:19.811Z,100.00
2023-05-09T02:03:52.456Z,100.00
2023-05-09T02:06:22.021Z,100.00
2023-05-09T02:08:50.754Z,100.00
2023-05-09T02:11:19.185Z,100.00
2023-05-09T02:13:47.565Z,100.00
2023-05-09T02:16:16.349Z,100.00
2023-05-09T02:18:44.790Z,100.00
2023-05-09T02:21:14.644Z,100.00
2023-05-09T02:23:43.006Z,100.00
2023-05-09T02:26:11.727Z,100.00
2023-05-09T02:28:40.703Z,99.68
2023-05-09T02:31:09.487Z,99.09
2023-05-09T02:33:39.194Z,99.24
2023-05-09T02:36:08.446Z,99.21
2023-05-09T02:38:38.284Z,99.03
2023-05-09T02:41:06.975Z,98.90
2023-05-09T02:43:35.585Z,98.91
2023-05-09T02:46:04.346Z,98.89
2023-05-09T02:48:32.860Z,98.40
2023-05-09T02:51:01.317Z,98.16
2023-05-09T02:53:33.056Z,98.36
2023-05-09T02:56:03.941Z,98.35
2023-05-09T02:58:32.316Z,98.35
2023-05-09T03:01:00.968Z,98.53
2023-05-09T03:03:29.685Z,98.31
2023-05-09T03:05:58.038Z,98.24
2023-05-09T03:08:26.384Z,98.65
2023-05-09T03:10:55.015Z,98.77
2023-05-09T03:13:24.772Z,98.97
2023-05-09T03:15:53.120Z,99.27
2023-05-09T03:18:21.375Z,99.08
2023-05-09T03:20:49.781Z,98.88
2023-05-09T03:23:18.267Z,99.29
2023-05-09T03:25:46.506Z,99.39
2023-05-09T03:28:14.736Z,99.34
2023-05-09T03:30:44.347Z,99.17
2023-05-09T03:33:12.606Z,98.29
2023-05-09T03:35:40.947Z,97.41
2023-05-09T03:38:09.857Z,97.46
2023-05-09T03:40:38.925Z,97.84
2023-05-09T03:43:07.666Z,97.39
2023-05-09T03:45:38.328Z,97.20
2023-05-09T03:48:09.532Z,97.04
2023-05-09T03:50:38.005Z,96.73
2023-05-09T03:53:06.452Z,96.17
2023-05-09T03:55:34.804Z,95.93
2023-05-09T03:58:03.883Z,95.66
2023-05-09T04:00:32.338Z,95.56
2023-05-09T04:03:01.122Z,95.99
2023-05-09T04:05:33.499Z,95.74
2023-05-09T04:08:11.872Z,95.30
2023-05-09T04:10:40.482Z,95.39
2023-05-09T04:13:08.867Z,95.24
2023-05-09T04:15:37.289Z,94.68
2023-05-09T04:18:06.039Z,94.79
2023-05-09T04:20:35.918Z,94.26
2023-05-09T04:23:04.395Z,94.41
2023-05-09T04:25:32.743Z,94.33
2023-05-09T04:28:01.062Z,94.66
2023-05-09T04:30:29.643Z,94.70
2023-05-09T04:32:58.090Z,94.10
2023-05-09T04:35:26.864Z,94.73
2023-05-09T04:37:56.597Z,94.76
2023-05-09T04:40:26.770Z,94.62
2023-05-09T04:43:03.225Z,94.88
2023-05-09T04:45:31.834Z,94.95
2023-05-09T04:48:00.405Z,94.21
2023-05-09T04:50:28.799Z,94.52
2023-05-09T04:52:58.556Z,94.43
2023-05-09T04:55:27.118Z,94.63
2023-05-09T04:57:55.651Z,94.39
2023-05-09T05:00:24.299Z,94.50
2023-05-09T05:02:52.744Z,94.20
2023-05-09T05:05:25.024Z,94.31
2023-05-09T05:07:54.480Z,94.18
2023-05-09T05:10:24.203Z,94.02
2023-05-09T05:12:52.502Z,94.43
2023-05-09T05:15:21.081Z,94.53
2023-05-09T05:17:49.651Z,94.73
2023-05-09T05:20:18.081Z,94.68
2023-05-09T05:22:46.520Z,94.90
2023-05-09T05:25:15.188Z,94.77
2023-05-09T05:27:45.252Z,93.73
2023-05-09T05:30:15.504Z,93.85
2023-05-09T05:32:43.987Z,93.92
2023-05-09T05:35:12.626Z,93.48
2023-05-09T05:37:42.234Z,93.75
2023-05-09T05:40:11.120Z,93.69
2023-05-09T05:42:40.924Z,93.47
2023-05-09T05:45:12.515Z,93.41
2023-05-09T05:47:41.214Z,92.94
2023-05-09T05:50:12.008Z,92.79
2023-05-09T05:52:42.533Z,92.41
2023-05-09T05:55:14.470Z,92.53
2023-05-09T05:57:43.474Z,91.96
2023-05-09T06:00:14.844Z,91.80
2023-05-09T06:02:44.169Z,91.37
2023-05-09T06:05:13.095Z,91.72
2023-05-09T06:07:44.057Z,91.76
2023-05-09T06:10:12.585Z,90.77
2023-05-09T06:12:41.141Z,90.29
2023-05-09T06:15:10.358Z,90.27
2023-05-09T06:17:40.361Z,90.09
2023-05-09T06:20:12.215Z,89.27
2023-05-09T06:22:41.761Z,88.06
2023-05-09T06:25:10.576Z,86.03
2023-05-09T06:27:39.241Z,83.45
2023-05-09T06:30:23.739Z,80.62
2023-05-09T06:32:55.622Z,78.51
2023-05-09T06:35:24.024Z,78.36
2023-05-09T06:37:52.542Z,77.91
2023-05-09T06:40:24.054Z,78.31
2023-05-09T06:42:52.766Z,78.95
2023-05-09T06:45:21.425Z,78.48
2023-05-09T06:47:50.367Z,78.54
2023-05-09T06:50:20.218Z,78.39
2023-05-09T06:52:49.150Z,78.88
2023-05-09T06:55:18.153Z,79.24
2023-05-09T06:57:49.058Z,80.02
2023-05-09T07:00:17.700Z,81.09
2023-05-09T07:02:46.773Z,79.81
2023-05-09T07:05:16.385Z,78.83
2023-05-09T07:07:46.375Z,77.40
2023-05-09T07:10:15.054Z,77.02
2023-05-09T07:12:43.501Z,76.66
2023-05-09T07:15:12.289Z,75.63
2023-05-09T07:17:40.830Z,75.36
2023-05-09T07:20:09.577Z,74.79
2023-05-09T07:22:38.067Z,75.59
2023-05-09T07:25:09.591Z,75.78
2023-05-09T07:27:38.242Z,76.30
2023-05-09T07:30:07.603Z,77.03
2023-05-09T07:32:36.501Z,77.61
2023-05-09T07:35:05.819Z,78.79
2023-05-09T07:37:34.938Z,78.94
2023-05-09T07:40:06.253Z,78.83
2023-05-09T07:42:36.355Z,78.19
2023-05-09T07:45:06.846Z,77.26
2023-05-09T07:47:48.325Z,75.97
2023-05-09T07:50:18.068Z,75.01
2023-05-09T07:52:46.521Z,74.43
2023-05-09T07:55:15.571Z,72.78
2023-05-09T07:57:45.438Z,72.88
2023-05-09T08:00:15.074Z,71.54
2023-05-09T08:02:43.571Z,71.14
2023-05-09T08:05:13.917Z,70.52
2023-05-09T08:07:42.578Z,68.45
2023-05-09T08:10:11.327Z,68.53
2023-05-09T08:12:39.988Z,68.50
2023-05-09T08:15:10.350Z,68.41
2023-05-09T08:17:38.975Z,67.86
2023-05-09T08:20:08.942Z,67.51
2023-05-09T08:22:37.355Z,67.60
2023-05-09T08:25:06.769Z,69.70
2023-05-09T08:27:36.078Z,70.71
2023-05-09T08:30:17.169Z,69.87
2023-05-09T08:32:50.826Z,67.85
2023-05-09T08:35:19.331Z,65.55
2023-05-09T08:37:48.126Z,65.82
2023-05-09T08:40:17.097Z,65.72
2023-05-09T08:42:46.756Z,66.93
2023-05-09T08:45:15.940Z,66.12
2023-05-09T08:47:45.682Z,65.86
2023-05-09T08:50:17.661Z,66.25
2023-05-09T08:52:46.616Z,67.00
2023-05-09T08:55:15.327Z,66.80
2023-05-09T08:57:43.960Z,66.59
2023-05-09T09:00:14.140Z,64.71
2023-05-09T09:02:44.059Z,65.61
2023-05-09T09:05:28.718Z,65.39
2023-05-09T09:08:05.371Z,65.52
2023-05-09T09:10:36.810Z,65.41
2023-05-09T09:13:06.571Z,64.16
2023-05-09T09:15:36.903Z,63.97
2023-05-09T09:18:40.599Z,63.27
2023-05-09T09:21:13.344Z,63.57
2023-05-09T09:23:44.730Z,64.41
2023-05-09T09:26:15.044Z,63.83
2023-05-09T09:28:46.166Z,62.66
2023-05-09T09:31:25.085Z,60.88
2023-05-09T09:33:55.555Z,54.76
2023-05-09T09:36:32.490Z,52.01
2023-05-09T09:39:04.713Z,50.98
2023-05-09T09:41:34.124Z,52.76
2023-05-09T09:44:07.520Z,50.19
2023-05-09T09:46:42.712Z,47.68
2023-05-09T09:49:11.182Z,47.17
2023-05-09T09:51:39.711Z,48.21
2023-05-09T09:54:10.796Z,47.05
2023-05-09T09:56:40.048Z,46.53
2023-05-09T09:59:12.533Z,44.79
2023-05-09T10:01:57.409Z,45.07
2023-05-09T10:04:26.703Z,42.42
2023-05-09T10:06:55.886Z,42.80
2023-05-09T10:09:26.721Z,41.89
2023-05-09T10:11:55.795Z,39.11
2023-05-09T10:14:25.126Z,37.91
2023-05-09T10:16:56.710Z,39.85
2023-05-09T10:19:27.062Z,42.29
2023-05-09T10:22:12.634Z,44.49
2023-05-09T10:25:04.613Z,45.52
2023-05-09T10:27:37.007Z,46.65
2023-05-09T10:30:08.224Z,47.89
2023-05-09T10:32:44.925Z,46.28
2023-05-09T10:35:17.132Z,44.33
2023-05-09T10:37:46.573Z,42.31
2023-05-09T10:40:16.258Z,43.83
2023-05-09T10:42:53.858Z,43.75
2023-05-09T10:45:24.184Z,43.23
2023-05-09T10:47:57.280Z,43.83
2023-05-09T10:50:31.429Z,44.14
2023-05-09T10:53:07.046Z,43.48
2023-05-09T10:55:59.152Z,42.93
2023-05-09T10:58:28.678Z,43.37
2023-05-09T11:01:08.389Z,42.59
2023-05-09T11:04:02.310Z,41.56
2023-05-09T11:07:00.229Z,42.54
2023-05-09T11:09:36.851Z,41.23
2023-05-09T11:12:15.823Z,41.58
2023-05-09T11:14:45.594Z,42.57
2023-05-09T11:17:16.748Z,44.76
2023-05-09T11:20:08.117Z,43.88
2023-05-09T11:22:41.363Z,44.22
2023-05-09T11:25:13.674Z,44.96
2023-05-09T11:27:50.152Z,45.62
2023-05-09T11:30:19.249Z,43.62
2023-05-09T11:32:48.526Z,43.78
2023-05-09T11:35:21.346Z,43.86
2023-05-09T11:37:50.768Z,44.09
2023-05-09T11:40:20.330Z,44.75
2023-05-09T11:42:50.896Z,44.27
2023-05-09T11:45:19.293Z,42.92
2023-05-09T11:47:48.308Z,41.73
2023-05-09T11:50:17.374Z,41.58
2023-05-09T11:52:45.966Z,40.52
2023-05-09T11:55:15.491Z,39.55
2023-05-09T11:57:45.760Z,37.98
2023-05-09T12:00:16.733Z,37.07
2023-05-09T12:02:46.098Z,37.12
2023-05-09T12:05:15.678Z,38.98
2023-05-09T12:07:44.630Z,37.55
2023-05-09T12:10:15.368Z,39.01
2023-05-09T12:12:47.484Z,39.80
2023-05-09T12:15:18.282Z,40.74
2023-05-09T12:17:49.637Z,43.20
2023-05-09T12:20:20.084Z,44.25
2023-05-09T12:22:54.177Z,45.54
2023-05-09T12:25:24.702Z,46.37
2023-05-09T12:27:54.549Z,46.82
2023-05-09T12:30:25.621Z,46.57
2023-05-09T12:32:54.085Z,46.29
2023-05-09T12:35:23.523Z,45.73
2023-05-09T12:37:59.070Z,44.17
2023-05-09T12:40:29.539Z,43.54
2023-05-09T12:43:00.784Z,42.83
2023-05-09T12:45:32.973Z,42.01
2023-05-09T12:48:09.040Z,41.48
2023-05-09T12:50:38.188Z,41.03
2023-05-09T12:53:06.920Z,40.35
2023-05-09T12:55:39.865Z,41.13
2023-05-09T12:58:11.339Z,39.89
2023-05-09T13:00:45.403Z,39.21
2023-05-09T13:03:27.787Z,41.12
2023-05-09T13:05:58.057Z,42.22
2023-05-09T13:08:27.338Z,41.81
2023-05-09T13:11:07.956Z,42.08
2023-05-09T13:13:47.126Z,42.37
2023-05-09T13:16:17.871Z,43.24
2023-05-09T13:18:46.492Z,43.39
2023-05-09T13:21:16.215Z,45.16
2023-05-09T13:23:45.454Z,45.90
2023-05-09T13:26:17.500Z,46.21
2023-05-09T13:28:45.963Z,46.30
2023-05-09T13:31:14.427Z,45.36
2023-05-09T13:33:44.146Z,44.69
2023-05-09T13:36:13.264Z,44.27
2023-05-09T13:38:45.566Z,43.81
2023-05-09T13:41:20.070Z,45.38
2023-05-09T13:43:49.281Z,46.02
2023-05-09T13:46:32.111Z,45.78
2023-05-09T13:49:04.403Z,46.36
2023-05-09T13:51:33.621Z,45.35
2023-05-09T13:54:02.051Z,45.26
2023-05-09T13:56:33.391Z,45.86
2023-05-09T13:59:01.917Z,46.61
2023-05-09T14:01:31.001Z,46.40
2023-05-09T14:04:01.964Z,46.28
2023-05-09T14:06:31.818Z,47.29
2023-05-09T14:09:00.116Z,47.59
2023-05-09T14:11:30.541Z,47.34
2023-05-09T14:13:59.912Z,47.67
2023-05-09T14:16:28.782Z,48.04
2023-05-09T14:18:57.961Z,47.77
2023-05-09T14:21:28.934Z,48.23
2023-05-09T14:23:59.120Z,48.39
2023-05-09T14:26:29.154Z,54.65
2023-05-09T14:29:01.060Z,57.04
2023-05-09T14:31:32.501Z,58.33
2023-05-09T14:34:01.110Z,58.82
2023-05-09T14:36:29.978Z,60.37
2023-05-09T14:38:59.901Z,60.05
2023-05-09T14:41:28.565Z,59.90
2023-05-09T14:43:58.251Z,60.72
2023-05-09T14:46:27.049Z,61.73
2023-05-09T14:48:57.714Z,62.29
2023-05-09T14:51:26.131Z,62.43
2023-05-09T14:53:54.776Z,63.34
2023-05-09T14:56:25.325Z,64.15
2023-05-09T14:58:54.870Z,65.26
2023-05-09T15:01:23.926Z,66.22
2023-05-09T15:03:52.449Z,68.05
2023-05-09T15:06:41.136Z,69.08
2023-05-09T15:09:21.132Z,70.28
2023-05-09T15:12:14.815Z,70.99
2023-05-09T15:15:15.272Z,72.19
2023-05-09T15:17:44.239Z,72.86
2023-05-09T15:20:15.359Z,74.42
2023-05-09T15:22:50.516Z,73.79
2023-05-09T15:25:23.368Z,74.03
2023-05-09T15:28:00.725Z,75.11
2023-05-09T15:30:32.029Z,76.03
2023-05-09T15:33:00.852Z,77.99
2023-05-09T15:35:31.935Z,78.04
2023-05-09T15:38:01.746Z,80.11
2023-05-09T15:40:30.472Z,82.43
2023-05-09T15:43:07.956Z,83.35
2023-05-09T15:45:38.789Z,83.18
2023-05-09T15:48:21.323Z,83.92
2023-05-09T15:50:58.270Z,84.81
2023-05-09T15:53:29.993Z,86.62
2023-05-09T15:56:02.090Z,87.14
2023-05-09T15:58:40.276Z,88.37
2023-05-09T16:01:20.085Z,88.72
2023-05-09T16:03:51.061Z,90.07
2023-05-09T16:06:37.130Z,91.41
2023-05-09T16:09:07.945Z,93.67
2023-05-09T16:11:59.782Z,94.31
2023-05-09T16:14:43.923Z,94.06
2023-05-09T16:17:15.770Z,94.51
2023-05-09T16:19:49.369Z,96.48
2023-05-09T16:22:18.189Z,96.28
2023-05-09T16:24:51.093Z,97.98
2023-05-09T16:27:20.040Z,100.00
2023-05-09T16:29:50.231Z,100.00
2023-05-09T16:32:20.056Z,100.00
2023-05-09T16:34:49.357Z,100.00
2023-05-09T16:37:19.185Z,100.00
2023-05-09T16:39:48.084Z,100.00
2023-05-09T16:42:19.283Z,100.00
2023-05-09T16:44:50.420Z,100.00
2023-05-09T16:47:19.337Z,100.00
2023-05-09T16:49:49.753Z,100.00
2023-05-09T16:52:20.688Z,100.00
2023-05-09T16:54:57.066Z,100.00
2023-05-09T16:57:27.745Z,100.00
2023-05-09T16:59:58.679Z,100.00
2023-05-09T17:02:30.649Z,100.00
2023-05-09T17:05:03.422Z,100.00
2023-05-09T17:07:35.547Z,100.00
2023-05-09T17:10:04.292Z,100.00
2023-05-09T17:12:44.690Z,100.00
2023-05-09T17:15:14.921Z,100.00
2023-05-09T17:17:47.427Z,100.00
2023-05-09T17:20:21.625Z,100.00
2023-05-09T17:22:52.330Z,100.00
2023-05-09T17:25:29.448Z,100.00
2023-05-09T17:27:57.907Z,100.00
2023-05-09T17:30:30.753Z,100.00
2023-05-09T17:33:04.313Z,100.00
2023-05-09T17:35:36.496Z,100.00
2023-05-09T17:38:05.648Z,100.00
2023-05-09T17:40:38.406Z,100.00
2023-05-09T17:43:07.973Z,100.00
2023-05-09T17:45:38.316Z,100.00
2023-05-09T17:48:06.814Z,100.00
2023-05-09T17:50:35.678Z,100.00
2023-05-09T17:53:05.285Z,100.00
2023-05-09T17:55:35.259Z,100.00
2023-05-09T17:58:06.934Z,100.00
2023-05-09T18:00:36.715Z,100.00
2023-05-09T18:03:07.270Z,100.00
2023-05-09T18:05:35.931Z,100.00
2023-05-09T18:08:09.734Z,100.00
2023-05-09T18:10:48.966Z,100.00
2023-05-09T18:13:24.958Z,100.00
2023-05-09T18:16:03.451Z,100.00
2023-05-09T18:18:35.792Z,100.00
2023-05-09T18:21:05.464Z,100.00
2023-05-09T18:23:36.343Z,100.00
2023-05-09T18:26:07.926Z,100.00
2023-05-09T18:28:39.681Z,100.00
2023-05-09T18:31:11.952Z,100.00
2023-05-09T18:33:42.348Z,100.00
2023-05-09T18:36:11.232Z,100.00
2023-05-09T18:38:43.614Z,100.00
2023-05-09T18:41:13.501Z,100.00
2023-05-09T18:43:46.907Z,100.00
2023-05-09T18:46:17.754Z,100.00
2023-05-09T18:48:48.295Z,100.00
2023-05-09T18:51:17.017Z,100.00
2023-05-09T18:53:48.542Z,100.00
2023-05-09T18:56:19.196Z,100.00
2023-05-09T18:58:48.829Z,100.00
2023-05-09T19:01:18.216Z,100.00
2023-05-09T19:03:53.961Z,100.00
2023-05-09T19:06:24.157Z,100.00
2023-05-09T19:08:53.937Z,100.00
2023-05-09T19:11:23.304Z,100.00
2023-05-09T19:13:52.965Z,100.00
2023-05-09T19:16:24.933Z,100.00
2023-05-09T19:18:57.018Z,100.00
2023-05-09T19:21:25.545Z,100.00
2023-05-09T19:24:04.665Z,100.00
2023-05-09T19:26:33.099Z,100.00
2023-05-09T19:29:04.091Z,100.00
2023-05-09T19:31:32.738Z,100.00
2023-05-09T19:34:02.646Z,100.00
2023-05-09T19:36:31.098Z,100.00
2023-05-09T19:38:59.430Z,100.00
2023-05-09T19:41:30.969Z,100.00
2023-05-09T19:43:59.458Z,100.00
2023-05-09T19:46:27.787Z,100.00
2023-05-09T19:48:56.230Z,100.00
2023-05-09T19:51:25.932Z,100.00
2023-05-09T19:53:54.227Z,100.00
2023-05-09T19:56:23.327Z,100.00
2023-05-09T19:58:55.404Z,100.00
2023-05-09T20:01:32.221Z,100.00
2023-05-09T20:04:13.365Z,100.00
2023-05-09T20:06:52.484Z,100.00
2023-05-09T20:09:23.583Z,100.00
2023-05-09T20:11:51.900Z,100.00
2023-05-09T20:14:22.222Z,100.00
2023-05-09T20:16:50.650Z,100.00
2023-05-09T20:19:21.136Z,100.00
2023-05-09T20:21:51.307Z,100.00
2023-05-09T20:24:19.722Z,100.00
2023-05-09T20:26:48.310Z,100.00
2023-05-09T20:29:16.685Z,100.00
2023-05-09T20:31:45.405Z,100.00
2023-05-09T20:34:17.734Z,100.00
2023-05-09T20:36:48.433Z,100.00
2023-05-09T20:39:18.399Z,100.00
2023-05-09T20:41:47.025Z,100.00
2023-05-09T20:44:16.297Z,100.00
2023-05-09T20:46:45.022Z,100.00
2023-05-09T20:49:13.515Z,100.00
2023-05-09T20:51:44.771Z,100.00
2023-05-09T20:54:29.089Z,100.00
2023-05-09T20:57:02.358Z,100.00
2023-05-09T20:59:30.802Z,100.00
2023-05-09T21:02:03.071Z,100.00
2023-05-09T21:04:35.096Z,100.00
2023-05-09T21:07:08.102Z,100.00
2023-05-09T21:09:43.136Z,100.00
2023-05-09T21:12:12.530Z,100.00
2023-05-09T21:14:41.080Z,100.00
2023-05-09T21:17:23.028Z,100.00
2023-05-09T21:19:57.482Z,100.00
2023-05-09T21:22:26.122Z,100.00
2023-05-09T21:24:55.735Z,100.00
2023-05-09T21:27:24.333Z,100.00
2023-05-09T21:29:52.965Z,100.00
2023-05-09T21:32:21.676Z,100.00
2023-05-09T21:34:52.718Z,100.00
2023-05-09T21:37:30.138Z,100.00
2023-05-09T21:40:04.169Z,100.00
2023-05-09T21:42:37.409Z,100.00
2023-05-09T21:45:07.967Z,100.00
2023-05-09T21:47:40.075Z,100.00
2023-05-09T21:50:09.235Z,100.00
2023-05-09T21:52:37.961Z,100.00
2023-05-09T21:55:08.265Z,100.00
2023-05-09T21:57:36.924Z,100.00
2023-05-09T22:00:16.773Z,100.00
2023-05-09T22:02:49.695Z,100.00
2023-05-09T22:05:19.593Z,100.00
2023-05-09T22:07:48.409Z,100.00
2023-05-09T22:10:24.227Z,100.00
2023-05-09T22:12:56.845Z,100.00
2023-05-09T22:15:26.135Z,100.00
2023-05-09T22:18:02.663Z,100.00
2023-05-09T22:20:33.508Z,100.00
2023-05-09T22:23:05.673Z,100.00
2023-05-09T22:25:37.394Z,100.00
2023-05-09T22:28:06.142Z,100.00
2023-05-09T22:30:37.569Z,100.00
2023-05-09T22:33:06.075Z,100.00
2023-05-09T22:35:34.517Z,100.00
2023-05-09T22:38:04.898Z,100.00
2023-05-09T22:40:33.894Z,100.00
2023-05-09T22:43:06.156Z,100.00
2023-05-09T22:45:38.425Z,100.00
2023-05-09T22:48:13.318Z,100.00
2023-05-09T22:50:41.731Z,100.00
2023-05-09T22:53:17.696Z,100.00
2023-05-09T22:55:47.649Z,100.00
2023-05-09T22:58:20.268Z,100.00
2023-05-09T23:00:48.709Z,100.00
2023-05-09T23:03:18.800Z,100.00
2023-05-09T23:05:47.222Z,100.00
2023-05-09T23:08:15.999Z,100.00
2023-05-09T23:10:46.666Z,100.00
2023-05-09T23:13:17.521Z,100.00
2023-05-09T23:15:47.489Z,100.00
2023-05-09T23:18:18.127Z,100.00
2023-05-09T23:20:49.114Z,100.00
2023-05-09T23:23:17.683Z,100.00
2023-05-09T23:25:48.793Z,100.00
2023-05-09T23:28:20.134Z,100.00
2023-05-09T23:30:50.021Z,100.00
2023-05-09T23:33:20.205Z,100.00
2023-05-09T23:35:48.650Z,100.00
2023-05-09T23:38:24.151Z,100.00
2023-05-09T23:40:53.784Z,100.00
2023-05-09T23:43:22.317Z,100.00
2023-05-09T23:45:52.789Z,100.00
2023-05-09T23:48:21.227Z,100.00
2023-05-09T23:50:57.517Z,100.00
2023-05-09T23:53:26.159Z,100.00
2023-05-09T23:55:57.245Z,100.00
2023-05-09T23:58:26.500Z,100.00
